Time;durP1;ratioP1;P1;durP2;ratioP2;P2;SDS_P1;SDS_P2;PMS_P1;PMS_P2;Temp;Humidity;BMP_temperature;BMP_pressure;BME280_temperature;BME280_humidity;BME280_pressure;Samples;Min_cycle;Max_cycle;Signal;HPM_P1;HPM_P2
2022/02/18 00:00:29;;;;;;;;;4.00;3.50;;;;;20.82;36.90;100868.38;5056266;28;45359;-60
2022/02/18 00:02:54;;;;;;;;;4.75;1.75;;;;;20.81;36.84;100863.16;5057000;28;45332;-59
2022/02/18 00:05:19;;;;;;;;;7.25;2.75;;;;;20.82;36.37;100867.50;5057301;28;45501;-59
2022/02/18 00:07:45;;;;;;;;;3.75;3.75;;;;;20.81;36.65;100860.53;5038675;28;45698;-59
2022/02/18 00:10:10;;;;;;;;;4.75;3.75;;;;;20.80;36.39;100845.66;5056732;28;45250;-59
2022/02/18 00:12:36;;;;;;;;;4.00;4.00;;;;;20.79;36.75;100843.97;5056909;28;45449;-59
2022/02/18 00:15:03;;;;;;;;;3.25;2.75;;;;;20.79;36.53;100849.22;5056878;28;45316;-59
2022/02/18 00:17:28;;;;;;;;;4.50;4.00;;;;;20.78;36.80;100839.66;5056666;28;46645;-59
2022/02/18 00:19:54;;;;;;;;;5.00;2.75;;;;;20.77;37.00;100837.97;5056688;28;45351;-58
2022/02/18 00:22:19;;;;;;;;;6.00;4.25;;;;;20.76;36.66;100833.63;5056833;28;45330;-60
2022/02/18 00:24:46;;;;;;;;;4.00;4.00;;;;;20.75;36.93;100835.38;5057428;28;45318;-59
2022/02/18 00:27:11;;;;;;;;;4.00;2.00;;;;;20.75;37.12;100831.91;5056940;28;45596;-59
2022/02/18 00:29:37;;;;;;;;;4.00;2.00;;;;;20.73;36.58;100816.16;5056667;28;45359;-59
2022/02/18 00:32:07;;;;;;;;;3.25;3.25;;;;;20.73;36.54;100820.59;5038517;28;45500;-59
2022/02/18 00:34:33;;;;;;;;;6.50;3.00;;;;;20.72;37.00;100816.25;5056950;28;45487;-59
2022/02/18 00:36:59;;;;;;;;;4.25;3.75;;;;;20.73;36.72;100823.22;5056379;28;46549;-59
2022/02/18 00:39:24;;;;;;;;;3.00;3.00;;;;;20.72;37.08;100824.16;5055396;28;45392;-59
2022/02/18 00:41:49;;;;;;;;;6.25;4.75;;;;;20.70;37.00;100817.19;5038183;28;51908;-58
2022/02/18 00:44:15;;;;;;;;;6.50;3.50;;;;;20.70;36.90;100804.03;5057012;28;45556;-59
2022/02/18 00:46:40;;;;;;;;;7.25;3.75;;;;;20.72;36.74;100800.44;5056144;28;46140;-58
2022/02/18 00:49:05;;;;;;;;;3.75;3.00;;;;;20.66;36.93;100784.06;5056287;28;45379;-59
2022/02/18 00:51:31;;;;;;;;;4.50;3.75;;;;;20.68;37.01;100774.28;5056295;28;45340;-56
2022/02/18 00:53:56;;;;;;;;;5.25;3.00;;;;;20.70;36.60;100772.41;5056519;28;45661;-57
2022/02/18 00:56:22;;;;;;;;;4.50;3.00;;;;;20.69;36.64;100767.25;5056153;28;46274;-58
2022/02/18 00:58:47;;;;;;;;;5.50;4.25;;;;;20.68;37.04;100758.47;5056171;28;45444;-57
2022/02/18 01:01:13;;;;;;;;;3.25;3.00;;;;;20.67;37.12;100746.25;5056680;28;45218;-59
2022/02/18 01:03:38;;;;;;;;;4.50;3.75;;;;;20.68;36.64;100750.56;5056419;28;45501;-58
2022/02/18 01:06:04;;;;;;;;;3.00;3.00;;;;;20.69;36.98;100754.06;5055932;28;45269;-58
2022/02/18 01:08:30;;;;;;;;;3.75;3.75;;;;;20.68;37.04;100747.94;5055835;28;45763;-57
2022/02/18 01:10:55;;;;;;;;;4.25;4.00;;;;;20.66;37.09;100746.34;5056234;28;45380;-59
2022/02/18 01:13:20;;;;;;;;;4.50;4.25;;;;;20.63;37.14;100733.34;5056198;28;45263;-57
2022/02/18 01:15:46;;;;;;;;;3.75;3.75;;;;;20.65;37.10;100724.44;5055986;28;46094;-58
2022/02/18 01:18:11;;;;;;;;;4.00;4.00;;;;;20.67;37.25;100725.19;5055783;28;45205;-57
2022/02/18 01:20:37;;;;;;;;;5.00;3.00;;;;;20.66;37.17;100714.75;5056088;28;45174;-57
2022/02/18 01:23:03;;;;;;;;;4.75;3.00;;;;;20.64;36.78;100699.03;5056085;28;45561;-56
2022/02/18 01:25:28;;;;;;;;;5.50;3.00;;;;;20.65;36.71;100697.25;5055799;28;45714;-57
2022/02/18 01:27:56;;;;;;;;;4.50;4.50;;;;;20.63;37.31;100684.19;5055746;28;45426;-56
2022/02/18 01:30:23;;;;;;;;;3.00;3.00;;;;;20.64;37.06;100692.91;5055905;28;45418;-56
2022/02/18 01:32:49;;;;;;;;;4.75;4.00;;;;;20.62;37.06;100679.84;5055926;28;45439;-56
2022/02/18 01:35:17;;;;;;;;;5.25;4.75;;;;;20.63;37.23;100663.13;5055894;28;45225;-56
2022/02/18 01:37:43;;;;;;;;;4.00;3.50;;;;;20.61;37.00;100672.03;5055793;28;45690;-56
2022/02/18 01:40:10;;;;;;;;;7.00;3.00;;;;;20.61;36.81;100658.88;5056119;28;45377;-58
2022/02/18 01:42:35;;;;;;;;;3.75;3.75;;;;;20.63;37.31;100646.44;5055863;28;45587;-59
2022/02/18 01:45:00;;;;;;;;;5.00;3.25;;;;;20.61;36.86;100641.28;5055618;28;46888;-59
2022/02/18 01:47:26;;;;;;;;;6.25;4.50;;;;;20.60;37.40;100636.13;5055594;28;45328;-60
2022/02/18 01:49:54;;;;;;;;;7.25;3.25;;;;;20.59;37.34;100629.97;5055643;28;45399;-58
2022/02/18 01:52:24;;;;;;;;;5.25;4.75;;;;;20.61;37.29;100625.47;5059523;28;46079;-56
2022/02/18 01:54:50;;;;;;;;;4.00;4.00;;;;;20.60;36.92;100631.69;5059097;28;46809;-56
2022/02/18 01:57:16;;;;;;;;;5.25;3.75;;;;;20.59;37.21;100606.28;5059152;28;45454;-55
2022/02/18 01:59:41;;;;;;;;;5.50;4.00;;;;;20.60;37.61;100610.63;5059082;28;45306;-57
2022/02/18 02:02:07;;;;;;;;;6.00;4.25;;;;;20.59;37.13;100603.66;5059086;28;45292;-56
2022/02/18 02:04:33;;;;;;;;;3.50;3.50;;;;;20.60;37.57;100600.09;5058746;28;46299;-58
2022/02/18 02:07:02;;;;;;;;;6.25;4.00;;;;;20.59;37.75;100594.91;5058675;28;45282;-58
2022/02/18 02:09:27;;;;;;;;;3.00;3.00;;;;;20.55;37.14;100586.38;5058794;28;45285;-59
2022/02/18 02:11:53;;;;;;;;;5.75;3.75;;;;;20.58;37.65;100577.44;5058977;28;45396;-58
2022/02/18 02:14:18;;;;;;;;;4.25;3.00;;;;;20.55;37.49;100581.09;5058584;28;46450;-57
2022/02/18 02:16:44;;;;;;;;;3.00;2.00;;;;;20.57;37.64;100581.00;5058485;28;45386;-59
2022/02/18 02:19:09;;;;;;;;;3.75;2.75;;;;;20.57;37.88;100573.94;5040514;28;45458;-59
2022/02/18 02:21:36;;;;;;;;;4.75;4.00;;;;;20.58;37.46;100565.09;5058839;28;45380;-58
2022/02/18 02:24:02;;;;;;;;;5.00;3.50;;;;;20.57;37.68;100555.50;5058322;28;46831;-59
2022/02/18 02:26:28;;;;;;;;;2.00;2.00;;;;;20.58;37.33;100554.56;5058298;28;45437;-57
2022/02/18 02:28:54;;;;;;;;;5.75;3.50;;;;;20.57;38.03;100546.75;5058433;28;45303;-58
2022/02/18 02:31:23;;;;;;;;;3.00;3.00;;;;;20.55;38.14;100538.97;5058820;28;45421;-59
2022/02/18 02:33:49;;;;;;;;;5.25;3.75;;;;;20.53;37.96;100540.84;5058472;28;45442;-57
2022/02/18 02:36:14;;;;;;;;;4.00;3.00;;;;;20.55;37.89;100542.44;5058291;28;45369;-58
2022/02/18 02:38:39;;;;;;;;;4.50;2.50;;;;;20.54;37.91;100535.47;5058187;28;45283;-57
2022/02/18 02:41:05;;;;;;;;;3.50;1.25;;;;;20.55;37.60;100529.28;5058636;28;45652;-57
2022/02/18 02:43:30;;;;;;;;;3.50;3.25;;;;;20.55;37.84;100520.53;5058034;28;46266;-58
2022/02/18 02:45:55;;;;;;;;;4.00;2.00;;;;;20.55;37.66;100507.38;5058173;28;45414;-57
2022/02/18 02:48:21;;;;;;;;;3.25;3.25;;;;;20.51;38.17;100495.31;5058337;28;45343;-58
2022/02/18 02:50:46;;;;;;;;;5.75;2.50;;;;;20.55;38.29;100488.94;5040218;28;45677;-57
2022/02/18 02:53:11;;;;;;;;;2.00;2.00;;;;;20.52;38.08;100487.31;5057980;28;46583;-58
2022/02/18 02:55:37;;;;;;;;;4.25;4.00;;;;;20.54;38.34;100482.00;5057930;28;45396;-59
2022/02/18 02:58:02;;;;;;;;;3.25;3.00;;;;;20.54;38.08;100474.91;5058116;28;45269;-60
2022/02/18 03:00:27;;;;;;;;;4.00;3.00;;;;;20.53;38.36;100472.38;5058270;28;45648;-60
2022/02/18 03:02:53;;;;;;;;;3.50;2.25;;;;;20.54;38.20;100453.03;5057049;28;46365;-58
2022/02/18 03:05:18;;;;;;;;;3.75;2.00;;;;;20.51;38.57;100450.56;5058291;28;45237;-59
2022/02/18 03:07:43;;;;;;;;;2.00;2.00;;;;;20.53;38.30;100446.06;5057998;28;45246;-59
2022/02/18 03:10:09;;;;;;;;;2.50;2.50;;;;;20.51;38.19;100432.97;5057784;28;45413;-58
2022/02/18 03:12:35;;;;;;;;;2.00;2.00;;;;;20.52;38.37;100439.94;5039653;28;46083;-59
2022/02/18 03:15:01;;;;;;;;;2.00;2.00;;;;;20.51;38.24;100432.97;5057480;28;45788;-57
2022/02/18 03:17:27;;;;;;;;;3.50;2.00;;;;;20.53;38.46;100419.75;5057733;28;45182;-58
2022/02/18 03:19:53;;;;;;;;;3.25;2.25;;;;;20.51;38.77;100422.44;5040101;28;45186;-59
2022/02/18 03:22:19;;;;;;;;;2.00;2.00;;;;;20.52;38.57;100424.13;5057361;28;47174;-59
2022/02/18 03:24:45;;;;;;;;;3.50;2.25;;;;;20.49;38.32;100410.31;5057356;28;45380;-60
2022/02/18 03:27:10;;;;;;;;;2.00;2.00;;;;;20.50;38.92;100410.25;5057511;28;45438;-60
2022/02/18 03:29:36;;;;;;;;;5.00;2.25;;;;;20.53;38.35;100419.75;5057580;28;45397;-60
2022/02/18 03:32:03;;;;;;;;;2.25;2.25;;;;;20.49;39.13;100403.28;5057269;28;47265;-59
2022/02/18 03:34:29;;;;;;;;;3.00;3.00;;;;;20.49;38.90;100403.28;5057359;28;45280;-58
2022/02/18 03:36:54;;;;;;;;;1.50;1.00;;;;;20.51;38.78;100400.56;5056207;28;45423;-56
2022/02/18 03:39:20;;;;;;;;;1.50;0.00;;;;;20.52;39.09;100402.25;5057945;28;45146;-59
2022/02/18 03:41:45;;;;;;;;;3.75;2.00;;;;;20.51;38.80;100397.91;5057224;28;46217;-58
2022/02/18 03:44:10;;;;;;;;;2.00;2.00;;;;;20.49;39.05;100392.75;5057216;28;45297;-59
2022/02/18 03:46:36;;;;;;;;;2.25;1.25;;;;;20.50;38.88;100402.34;5057217;28;45177;-60
2022/02/18 03:49:02;;;;;;;;;2.00;2.00;;;;;20.52;38.79;100404.88;5057220;28;45566;-59
2022/02/18 03:51:27;;;;;;;;;1.00;1.00;;;;;20.52;39.02;100399.63;5057084;28;46499;-59
2022/02/18 03:53:53;;;;;;;;;2.00;1.00;;;;;20.51;39.00;100392.66;5057279;28;45225;-59
2022/02/18 03:56:19;;;;;;;;;2.00;2.00;;;;;20.51;39.08;100401.38;5057061;28;45400;-56
2022/02/18 03:58:45;;;;;;;;;1.00;1.00;;;;;20.50;39.24;100383.94;5057178;28;45427;-57
2022/02/18 04:01:10;;;;;;;;;2.75;1.50;;;;;20.52;38.90;100391.72;5056855;28;46248;-58
2022/02/18 04:03:36;;;;;;;;;2.00;2.00;;;;;20.52;39.27;100382.00;5056852;28;45450;-59
2022/02/18 04:06:01;;;;;;;;;1.25;1.25;;;;;20.52;39.62;100375.91;5057031;28;45494;-57
2022/02/18 04:08:26;;;;;;;;;2.75;1.00;;;;;20.50;38.97;100368.13;5056897;28;45599;-58
2022/02/18 04:10:52;;;;;;;;;2.25;1.50;;;;;20.53;39.21;100364.44;5057007;28;47338;-59
2022/02/18 04:13:17;;;;;;;;;2.00;2.00;;;;;20.51;39.63;100363.69;5056690;28;45427;-57
2022/02/18 04:15:43;;;;;;;;;3.00;1.25;;;;;20.52;39.64;100360.97;5055467;28;45683;-60
2022/02/18 04:18:08;;;;;;;;;1.00;1.00;;;;;20.50;39.17;100352.34;5057054;28;45228;-60
2022/02/18 04:20:34;;;;;;;;;1.75;1.75;;;;;20.52;39.29;100350.44;5056400;28;46135;-60
2022/02/18 04:22:59;;;;;;;;;1.00;1.00;;;;;20.51;39.75;100347.91;5056467;28;45272;-59
2022/02/18 04:25:25;;;;;;;;;2.00;2.00;;;;;20.50;39.60;100346.22;5056529;28;45280;-59
2022/02/18 04:27:58;;;;;;;;;0.25;0.00;;;;;20.51;39.58;100332.09;5056786;28;45506;-62
2022/02/18 04:30:24;;;;;;;;;1.00;1.00;;;;;20.52;39.48;100333.81;5056729;28;46222;-60
2022/02/18 04:32:50;;;;;;;;;1.00;1.00;;;;;20.53;39.67;100335.50;5056605;28;45305;-59
2022/02/18 04:35:17;;;;;;;;;3.00;3.00;;;;;20.51;39.95;100324.22;5056657;28;45369;-57
2022/02/18 04:37:42;;;;;;;;;2.25;1.00;;;;;20.51;40.03;100321.56;5056787;28;45531;-60
2022/02/18 04:40:09;;;;;;;;;2.50;1.00;;;;;20.52;39.69;100324.09;5056344;28;45237;-59
2022/02/18 04:42:35;;;;;;;;;1.00;1.00;;;;;20.52;39.76;100312.75;5056311;28;45710;-60
2022/02/18 04:45:00;;;;;;;;;1.00;1.00;;;;;20.51;39.61;100306.59;5056408;28;45345;-58
2022/02/18 04:47:25;;;;;;;;;0.75;0.75;;;;;20.51;39.74;100306.59;5056786;28;45387;-60
2022/02/18 04:49:51;;;;;;;;;1.00;1.00;;;;;20.51;39.78;100290.81;5056163;28;45465;-59
2022/02/18 04:52:16;;;;;;;;;0.25;0.25;;;;;20.52;39.59;100299.56;5056141;28;45255;-57
2022/02/18 04:54:43;;;;;;;;;1.00;1.00;;;;;20.51;40.05;100298.72;5056258;28;45363;-58
2022/02/18 04:57:08;;;;;;;;;1.00;1.00;;;;;20.51;39.57;100300.50;5056537;28;45494;-59
2022/02/18 04:59:34;;;;;;;;;0.75;0.75;;;;;20.51;40.06;100295.25;5054749;28;47456;-59
2022/02/18 05:01:59;;;;;;;;;1.25;1.25;;;;;20.49;39.84;100286.59;5056055;28;45340;-59
2022/02/18 05:04:24;;;;;;;;;0.00;0.00;;;;;20.52;39.52;100291.69;5038515;28;45388;-59
2022/02/18 05:06:50;;;;;;;;;0.00;0.00;;;;;20.50;40.12;100277.75;5056303;28;45606;-59
2022/02/18 05:09:16;;;;;;;;;0.50;0.00;;;;;20.51;39.88;100287.34;5037759;28;47870;-57
2022/02/18 05:11:41;;;;;;;;;0.50;0.00;;;;;20.50;39.78;100283.88;5055940;28;45187;-58
2022/02/18 05:14:06;;;;;;;;;4.00;1.00;;;;;20.48;39.95;100269.13;5055927;28;45320;-59
2022/02/18 05:16:32;;;;;;;;;1.00;1.00;;;;;20.50;40.05;100262.84;5056345;28;45335;-58
2022/02/18 05:18:58;;;;;;;;;0.25;0.25;;;;;20.50;40.03;100256.69;5038091;28;46544;-58
2022/02/18 05:21:24;;;;;;;;;1.00;0.00;;;;;20.47;39.95;100241.97;5055918;28;45412;-57
2022/02/18 05:23:49;;;;;;;;;0.25;0.00;;;;;20.50;40.18;100248.81;5056083;28;45428;-58
2022/02/18 05:26:15;;;;;;;;;1.00;0.00;;;;;20.47;39.94;100246.38;5058204;28;45439;-59
2022/02/18 05:28:40;;;;;;;;;1.00;1.00;;;;;20.49;39.82;100242.72;5059190;28;45350;-58
2022/02/18 05:31:06;;;;;;;;;0.00;0.00;;;;;20.49;39.97;100234.81;5059230;28;45438;-59
2022/02/18 05:33:31;;;;;;;;;0.25;0.25;;;;;20.48;40.00;100232.25;5059301;28;45319;-60
2022/02/18 05:35:56;;;;;;;;;0.00;0.00;;;;;20.48;40.03;100227.00;5059953;28;45485;-59
2022/02/18 05:38:22;;;;;;;;;0.25;0.25;;;;;20.47;40.25;100220.03;5040384;28;46257;-59
2022/02/18 05:40:47;;;;;;;;;1.00;0.00;;;;;20.47;40.10;100209.50;5059080;28;45251;-60
2022/02/18 05:43:12;;;;;;;;;0.00;0.00;;;;;20.48;40.00;100211.19;5058083;28;45332;-60
2022/02/18 05:45:38;;;;;;;;;1.00;0.00;;;;;20.49;40.12;100205.00;5059334;28;45561;-58
2022/02/18 05:48:04;;;;;;;;;1.00;0.75;;;;;20.51;40.31;100195.22;5058980;28;46807;-57
2022/02/18 05:50:29;;;;;;;;;0.00;0.00;;;;;20.53;40.14;100193.34;5059343;28;45304;-57
2022/02/18 05:52:55;;;;;;;;;0.00;0.00;;;;;20.54;40.54;100185.31;5059123;28;45227;-58
2022/02/18 05:55:20;;;;;;;;;1.50;0.00;;;;;20.57;40.54;100181.63;5059246;28;45491;-59
2022/02/18 05:57:46;;;;;;;;;5.00;3.75;;;;;20.60;40.67;100183.25;5058867;28;45522;-58
2022/02/18 06:00:12;;;;;;;;;15.25;13.25;;;;;20.61;40.25;100175.22;5058628;28;45868;-57
2022/02/18 06:02:39;;;;;;;;;24.25;22.75;;;;;20.62;40.49;100163.75;5040840;28;45334;-56
2022/02/18 06:05:05;;;;;;;;;29.25;26.75;;;;;20.64;40.52;100164.50;5059018;28;45426;-59
2022/02/18 06:07:30;;;;;;;;;46.75;38.25;;;;;20.67;40.34;100160.81;5058816;28;46193;-57
2022/02/18 06:09:55;;;;;;;;;58.00;48.00;;;;;20.67;40.70;100159.00;5058478;28;45379;-60
2022/02/18 06:12:21;;;;;;;;;54.75;42.00;;;;;20.68;40.29;100141.44;5058655;28;45502;-59
2022/02/18 06:14:50;;;;;;;;;51.00;42.50;;;;;20.65;40.81;100139.00;5057281;28;45527;-55
2022/02/18 06:17:21;;;;;;;;;52.25;42.50;;;;;20.65;40.55;100144.28;5056948;28;47322;-59
2022/02/18 06:19:47;;;;;;;;;57.25;47.00;;;;;20.63;40.90;100122.47;5058097;28;45523;-58
2022/02/18 06:22:14;;;;;;;;;54.00;43.50;;;;;20.62;40.37;100128.66;5058329;28;45418;-59
2022/02/18 06:24:40;;;;;;;;;52.25;43.25;;;;;20.59;41.01;100126.28;5058469;28;45494;-57
2022/02/18 06:27:06;;;;;;;;;52.00;43.75;;;;;20.59;40.65;100129.72;5058168;28;45336;-57
2022/02/18 06:29:31;;;;;;;;;55.25;44.75;;;;;20.58;41.07;100133.31;5058615;28;45236;-58
2022/02/18 06:31:57;;;;;;;;;55.00;43.00;;;;;20.57;41.12;100120.25;5057138;28;45394;-57
2022/02/18 06:34:23;;;;;;;;;52.25;43.50;;;;;20.53;40.44;100114.34;5057468;28;45380;-60
2022/02/18 06:36:51;;;;;;;;;52.50;43.50;;;;;20.52;40.39;100115.31;5038746;28;47340;-59
2022/02/18 06:39:20;;;;;;;;;54.00;41.75;;;;;20.53;40.69;100111.72;5058198;28;45462;-59
2022/02/18 06:41:47;;;;;;;;;51.25;42.50;;;;;20.51;40.83;100111.81;5058169;28;45324;-59
2022/02/18 06:44:12;;;;;;;;;46.50;40.00;;;;;20.51;40.83;100108.34;5058488;28;45578;-60
2022/02/18 06:46:38;;;;;;;;;54.00;44.50;;;;;20.51;40.61;100106.53;5058030;28;45363;-60
2022/02/18 06:49:03;;;;;;;;;50.25;40.75;;;;;20.49;40.56;100091.81;5056926;28;45582;-59
2022/02/18 06:51:29;;;;;;;;;48.75;41.50;;;;;20.50;40.53;100093.50;5058043;28;45351;-60
2022/02/18 06:53:54;;;;;;;;;48.25;39.50;;;;;20.50;40.49;100099.63;5058077;28;45644;-59
2022/02/18 06:56:19;;;;;;;;;45.67;37.67;;;;;20.51;40.72;100095.19;5057797;28;48238;-59
2022/02/18 06:58:44;;;;;;;;;38.50;35.00;;;;;20.49;41.24;100086.53;5057668;28;45344;-61
2022/02/18 07:01:10;;;;;;;;;46.33;39.33;;;;;20.49;40.79;100070.75;5057870;28;45442;-59
2022/02/18 07:03:35;;;;;;;;;45.50;37.25;;;;;20.46;40.64;100066.53;5058047;28;45430;-59
2022/02/18 07:06:03;;;;;;;;;40.50;35.75;;;;;20.48;41.07;100061.16;5057815;28;46185;-57
2022/02/18 07:08:29;;;;;;;;;39.50;34.25;;;;;20.46;40.98;100061.28;5057468;28;45853;-61
2022/02/18 07:10:55;;;;;;;;;37.25;34.25;;;;;20.46;40.55;100060.41;5057678;28;45375;-60
2022/02/18 07:13:20;;;;;;;;;37.25;33.75;;;;;20.45;41.03;100054.31;5057863;28;45281;-60
2022/02/18 07:15:46;;;;;;;;;34.25;33.00;;;;;20.46;41.13;100060.41;5057148;28;46455;-59
2022/02/18 07:18:11;;;;;;;;;39.25;31.50;;;;;20.46;41.05;100073.56;5057322;28;45385;-59
2022/02/18 07:20:37;;;;;;;;;39.00;32.00;;;;;20.46;40.93;100065.69;5057601;28;45266;-60
2022/02/18 07:23:05;;;;;;;;;33.50;31.25;;;;;20.44;40.81;100064.97;5058053;28;45634;-60
2022/02/18 07:25:30;;;;;;;;;34.00;32.25;;;;;20.45;40.89;100054.31;5056015;28;48429;-60
2022/02/18 07:27:56;;;;;;;;;30.25;28.75;;;;;20.45;40.94;100064.03;5039298;28;45403;-60
2022/02/18 07:30:21;;;;;;;;;28.50;28.50;;;;;20.43;40.95;100039.59;5057309;28;45448;-59
2022/02/18 07:32:47;;;;;;;;;27.50;26.75;;;;;20.45;40.83;100053.50;5057507;28;45491;-59
2022/02/18 07:35:12;;;;;;;;;27.75;24.75;;;;;20.44;40.72;100036.00;5057085;28;45486;-60
2022/02/18 07:37:38;;;;;;;;;26.50;26.00;;;;;20.43;40.48;100034.31;5056098;28;45288;-59
2022/02/18 07:40:04;;;;;;;;;27.00;23.75;;;;;20.41;41.04;100039.66;5057378;28;45395;-59
2022/02/18 07:42:29;;;;;;;;;27.00;25.75;;;;;20.43;40.99;100024.63;5057288;28;45543;-61
2022/02/18 07:44:54;;;;;;;;;24.50;22.25;;;;;20.43;40.90;100027.25;5056793;28;45595;-59
2022/02/18 07:47:20;;;;;;;;;20.50;20.50;;;;;20.43;40.41;100026.44;5056905;28;45398;-60
2022/02/18 07:49:47;;;;;;;;;21.75;20.25;;;;;20.42;40.56;100037.91;5056862;28;45817;-60
2022/02/18 07:52:14;;;;;;;;;19.00;19.00;;;;;20.44;40.79;100041.28;5057279;28;45216;-59
2022/02/18 07:54:40;;;;;;;;;22.50;21.00;;;;;20.42;40.91;100035.25;5056714;28;46257;-58
2022/02/18 07:57:06;;;;;;;;;20.50;18.25;;;;;20.41;41.01;100041.47;5056878;28;45284;-60
2022/02/18 07:59:31;;;;;;;;;19.75;19.75;;;;;20.39;40.49;100034.53;5056960;28;45321;-59
2022/02/18 08:01:56;;;;;;;;;18.00;16.00;;;;;20.42;40.43;100022.09;5057061;28;45668;-60
2022/02/18 08:04:22;;;;;;;;;17.00;16.67;;;;;20.41;40.85;100020.41;5056778;28;47186;-60
2022/02/18 08:06:47;;;;;;;;;17.25;14.50;;;;;20.43;40.93;100013.25;5038673;28;45426;-60
2022/02/18 08:09:12;;;;;;;;;19.00;14.25;;;;;20.41;40.92;100004.63;5056535;28;45403;-59
2022/02/18 08:11:38;;;;;;;;;16.25;16.25;;;;;20.41;40.91;99992.28;5057049;28;45648;-58
2022/02/18 08:14:03;;;;;;;;;14.50;12.75;;;;;20.43;40.51;99992.22;5056870;28;46454;-60
2022/02/18 08:16:31;;;;;;;;;14.50;13.50;;;;;20.39;40.59;99975.78;5056672;28;45450;-60
2022/02/18 08:18:57;;;;;;;;;13.00;12.25;;;;;20.40;40.72;99969.56;5056626;28;45403;-60
2022/02/18 08:21:22;;;;;;;;;11.50;10.25;;;;;20.41;41.01;100002.81;5056858;28;45281;-61
2022/02/18 08:23:52;;;;;;;;;12.75;10.25;;;;;20.42;40.81;99985.25;5056398;28;45352;-61
2022/02/18 08:26:18;;;;;;;;;11.25;10.50;;;;;20.41;40.50;99989.66;5056404;28;45942;-60
2022/02/18 08:28:44;;;;;;;;;12.00;11.75;;;;;20.41;41.01;99981.78;5056382;28;45333;-59
2022/02/18 08:31:09;;;;;;;;;11.50;10.25;;;;;20.41;40.88;99967.78;5056607;28;45480;-60
2022/02/18 08:33:34;;;;;;;;;11.00;11.00;;;;;20.40;40.31;99959.03;5056607;28;46504;-60
2022/02/18 08:36:00;;;;;;;;;14.00;10.00;;;;;20.39;40.46;99955.56;5056327;28;45328;-60
2022/02/18 08:38:25;;;;;;;;;10.50;8.75;;;;;20.39;40.99;99966.09;5056346;28;45229;-59
2022/02/18 08:40:50;;;;;;;;;8.25;8.25;;;;;20.38;40.65;99956.50;5056508;28;45284;-59
2022/02/18 08:43:16;;;;;;;;;8.00;8.00;;;;;20.41;40.76;99952.00;5056174;28;45873;-60
2022/02/18 08:45:41;;;;;;;;;12.00;7.25;;;;;20.39;40.46;99963.47;5056238;28;45380;-60
2022/02/18 08:48:07;;;;;;;;;7.00;7.00;;;;;20.39;40.92;99981.88;5056697;28;45355;-60
2022/02/18 08:50:33;;;;;;;;;8.00;7.25;;;;;20.41;40.88;99994.09;5038322;28;45253;-60
2022/02/18 08:52:58;;;;;;;;;8.00;7.25;;;;;20.36;40.53;99986.53;5037902;28;46035;-61
2022/02/18 08:55:24;;;;;;;;;6.00;6.00;;;;;20.39;40.32;99987.16;5056032;28;45336;-60
2022/02/18 08:57:51;;;;;;;;;5.50;5.50;;;;;20.40;40.30;99995.88;5056201;28;45367;-61
2022/02/18 09:00:17;;;;;;;;;5.75;4.50;;;;;20.40;40.71;99987.97;5057097;28;45335;-59
2022/02/18 09:02:43;;;;;;;;;7.00;5.50;;;;;20.39;40.38;99987.16;5059616;28;46508;-60
2022/02/18 09:05:09;;;;;;;;;4.25;4.25;;;;;20.38;41.00;99980.19;5060066;28;45384;-59
2022/02/18 09:07:35;;;;;;;;;5.50;5.50;;;;;20.39;40.71;99978.44;5059672;28;45457;-60
2022/02/18 09:10:00;;;;;;;;;5.75;5.75;;;;;20.41;40.53;99973.88;5059866;28;45693;-60
2022/02/18 09:12:26;;;;;;;;;5.00;5.00;;;;;20.39;40.23;99971.34;5059388;28;46575;-59
2022/02/18 09:14:52;;;;;;;;;5.25;4.00;;;;;20.39;40.29;99966.09;5059355;28;45826;-60
2022/02/18 09:17:19;;;;;;;;;3.50;3.50;;;;;20.39;40.79;99974.00;5059579;28;45269;-59
2022/02/18 09:19:45;;;;;;;;;3.25;3.25;;;;;20.37;40.47;99965.34;5059631;28;45356;-59
2022/02/18 09:22:10;;;;;;;;;4.75;4.00;;;;;20.38;40.70;99964.41;5059408;28;46045;-60
2022/02/18 09:24:36;;;;;;;;;5.00;4.00;;;;;20.38;40.62;99943.34;5059375;28;45472;-59
2022/02/18 09:27:01;;;;;;;;;3.25;3.25;;;;;20.38;40.32;99943.34;5059318;28;45342;-59
2022/02/18 09:29:27;;;;;;;;;3.00;2.00;;;;;20.36;40.64;99929.44;5059451;28;45471;-60
2022/02/18 09:31:53;;;;;;;;;4.00;4.00;;;;;20.37;40.46;99939.03;5059017;28;46601;-59
2022/02/18 09:34:20;;;;;;;;;3.00;3.00;;;;;20.35;40.51;99930.41;5059289;28;45249;-60
2022/02/18 09:36:46;;;;;;;;;4.50;3.00;;;;;20.36;40.59;99934.72;5059285;28;45324;-57
2022/02/18 09:39:12;;;;;;;;;2.50;2.50;;;;;20.38;40.43;99938.09;5059627;28;45551;-57
2022/02/18 09:41:40;;;;;;;;;3.00;1.75;;;;;20.37;40.85;99930.31;5059364;28;46077;-60
2022/02/18 09:44:06;;;;;;;;;4.00;3.00;;;;;20.37;40.79;99925.88;5059033;28;45912;-58
2022/02/18 09:46:32;;;;;;;;;2.75;2.00;;;;;20.35;40.85;99925.13;5059195;28;45524;-60
2022/02/18 09:48:58;;;;;;;;;2.75;1.00;;;;;20.37;40.76;99907.44;5059361;28;45261;-60
2022/02/18 09:51:23;;;;;;;;;3.50;2.00;;;;;20.37;40.90;99920.59;5058790;28;45414;-59
2022/02/18 09:53:48;;;;;;;;;3.00;1.00;;;;;20.37;40.92;99915.34;5058816;28;45225;-59
2022/02/18 09:56:16;;;;;;;;;3.00;2.00;;;;;20.38;40.71;99917.03;5058407;28;45241;-60
2022/02/18 09:58:42;;;;;;;;;1.00;1.00;;;;;20.36;40.64;99916.28;5059438;28;45565;-59
2022/02/18 10:01:07;;;;;;;;;1.00;1.00;;;;;20.37;40.72;99919.78;5058762;28;46235;-60
2022/02/18 10:03:33;;;;;;;;;1.50;1.00;;;;;20.37;40.53;99915.34;5059026;28;45264;-60
2022/02/18 10:05:59;;;;;;;;;0.25;0.25;;;;;20.37;40.42;99904.81;5058922;28;45535;-60
2022/02/18 10:08:25;;;;;;;;;1.25;1.25;;;;;20.36;41.06;99897.03;5058953;28;45380;-60
2022/02/18 10:11:07;;;;;;;;;3.00;2.00;;;;;20.36;40.89;99897.88;5058403;28;46305;-60
2022/02/18 10:13:38;;;;;;;;;1.00;1.00;;;;;20.38;40.79;99889.88;5058618;28;45387;-60
2022/02/18 10:16:09;;;;;;;;;1.00;1.00;;;;;20.38;40.50;99884.63;5058622;28;45383;-60
2022/02/18 10:18:54;;;;;;;;;0.75;0.75;;;;;20.38;40.70;99879.38;5058969;28;45303;-59
2022/02/18 10:21:35;;;;;;;;;1.00;1.00;;;;;20.38;40.48;99877.56;5058479;28;46381;-59
2022/02/18 10:24:08;;;;;;;;;2.00;0.25;;;;;20.38;41.11;99868.84;5058424;28;45178;-60
2022/02/18 10:26:51;;;;;;;;;2.00;0.00;;;;;20.36;40.99;99870.72;5058708;28;45381;-60
2022/02/18 10:29:18;;;;;;;;;1.00;1.00;;;;;20.35;40.61;99864.59;5058645;28;45390;-61
2022/02/18 10:31:43;;;;;;;;;1.50;1.50;;;;;20.37;41.16;99873.25;5057374;28;47499;-61
2022/02/18 10:34:10;;;;;;;;;1.00;1.00;;;;;20.36;40.84;99868.91;5058238;28;45250;-60
2022/02/18 10:36:44;;;;;;;;;1.00;0.75;;;;;20.37;41.29;99875.03;5058516;28;45276;-60
2022/02/18 10:39:30;;;;;;;;;2.00;1.25;;;;;20.37;41.18;99867.97;5058790;28;45234;-60
2022/02/18 10:41:59;;;;;;;;;1.00;1.00;;;;;20.37;40.83;99882.94;5058157;28;46245;-60
2022/02/18 10:44:26;;;;;;;;;3.25;1.00;;;;;20.35;41.05;99872.50;5058292;28;45838;-60
2022/02/18 10:46:58;;;;;;;;;2.75;0.50;;;;;20.32;41.16;99862.22;5058261;28;45312;-60
2022/02/18 10:49:26;;;;;;;;;1.00;1.00;;;;;20.35;40.92;99866.41;5040186;28;45450;-60
2022/02/18 10:51:52;;;;;;;;;0.00;0.00;;;;;20.36;40.77;99866.28;5057882;28;46498;-60
2022/02/18 10:54:29;;;;;;;;;0.00;0.00;;;;;20.36;40.84;99871.56;5058067;28;45870;-60
2022/02/18 10:57:12;;;;;;;;;0.00;0.00;;;;;20.36;41.16;99850.50;5058217;28;45293;-61
2022/02/18 10:59:37;;;;;;;;;0.50;0.50;;;;;20.32;41.22;99843.78;5058324;28;45376;-59
2022/02/18 11:02:03;;;;;;;;;1.00;1.00;;;;;20.34;41.06;99844.50;5057731;28;45467;-59
2022/02/18 11:04:28;;;;;;;;;1.00;1.00;;;;;20.35;40.85;99846.19;5056479;28;45866;-59
2022/02/18 11:07:07;;;;;;;;;0.00;0.00;;;;;20.35;41.10;99843.56;5056687;28;45643;-59
2022/02/18 11:09:33;;;;;;;;;0.25;0.25;;;;;20.34;40.54;99849.75;5058137;28;45316;-58
2022/02/18 11:11:58;;;;;;;;;0.00;0.00;;;;;20.35;40.73;99854.09;5057647;28;45285;-59
2022/02/18 11:14:25;;;;;;;;;0.00;0.00;;;;;20.38;41.25;99853.03;5039586;28;45458;-58
2022/02/18 11:16:55;;;;;;;;;0.00;0.00;;;;;20.36;40.88;99836.50;5039726;28;45317;-58
2022/02/18 11:19:21;;;;;;;;;0.00;0.00;;;;;20.36;40.79;99839.97;5057144;28;45309;-60